Turnovo, Bulgaria
Current Conditions -  °F | °C
As of 10:00 AM on Saturday 25 Oct 2014 (Local Time) from LBGO Reporting Station
Light Snow Light Snow  
Wind Chill: 30°   Ceiling: 1200
Heat Index: 34°   Visibility: 0.68mi
Dew Point: 34°   Wind: 4mph
Humidity: 100%   Direction: NA
Pressure: 30.21"   Gusts: NA
Location:  43.09°N, 25.64°E
Report Text: LBGO 250700Z VRB02MPS 1100 R09/P1500D R27/P1500N -SNRA OVC012 01/01 Q1023 NOSIG
Loading
Personal Weather Stations






























Interactive Weather Map
Tropical Storm Tracking
New forecast layout! Learn more

10-Day Weather Forecast

Advertisements
Track Severe Weather on mobile